Time;durP1;ratioP1;P1;durP2;ratioP2;P2;SDS_P1;SDS_P2;PMS_P1;PMS_P2;Temp;Humidity;BMP_temperature;BMP_pressure;BME280_temperature;BME280_humidity;BME280_pressure;Samples;Min_cycle;Max_cycle;Signal;HPM_P1;HPM_P2
2021/12/05 00:23:21;;;;;;;0.60;0.60;;;;;;;2.70;100.00;97346.59;4924773;29;20123;-82
2021/12/05 00:25:52;;;;;;;0.40;0.40;;;;;;;2.59;100.00;97346.28;4911879;29;20031;-82
2021/12/05 00:31:19;;;;;;;0.28;0.28;;;;;;;2.41;100.00;97340.56;4912458;29;20440;-80
2021/12/05 00:41:55;;;;;;;0.73;0.60;;;;;;;2.43;100.00;97367.06;4920415;29;20044;-80
2021/12/05 00:44:59;;;;;;;0.60;0.60;;;;;;;2.48;100.00;97369.13;4893837;29;20487;-82
2021/12/05 01:02:44;;;;;;;1.27;1.05;;;;;;;2.78;100.00;97410.44;4910433;29;20032;-82
2021/12/05 01:15:32;;;;;;;1.23;1.00;;;;;;;2.84;100.00;97434.81;4914354;29;20487;-81
2021/12/05 01:18:04;;;;;;;3.60;0.73;;;;;;;2.83;100.00;97448.75;4889926;29;20043;-82
2021/12/05 01:20:34;;;;;;;1.67;0.80;;;;;;;2.90;100.00;97428.09;4930628;29;20028;-81
2021/12/05 01:23:06;;;;;;;2.08;0.90;;;;;;;2.81;100.00;97414.47;4906728;29;20043;-81
2021/12/05 01:28:09;;;;;;;0.70;0.50;;;;;;;2.90;100.00;97443.66;4927234;29;20039;-80
2021/12/05 01:30:48;;;;;;;0.80;0.50;;;;;;;2.77;100.00;97444.31;4905596;29;20148;-80
2021/12/05 01:33:24;;;;;;;0.43;0.40;;;;;;;2.70;100.00;97452.81;4922174;29;20127;-81
2021/12/05 01:38:55;;;;;;;0.80;0.40;;;;;;;2.60;100.00;97478.22;4926745;29;20035;-81
2021/12/05 02:34:35;;;;;;;2.45;1.17;;;;;;;2.55;100.00;97560.81;4910642;29;20435;-81
2021/12/05 02:37:30;;;;;;;2.10;1.20;;;;;;;2.57;100.00;97584.78;4924234;29;20028;-82
2021/12/05 02:42:57;;;;;;;4.35;1.30;;;;;;;2.54;100.00;97601.50;4900451;29;20102;-82
2021/12/05 02:45:23;;;;;;;3.83;1.00;;;;;;;2.58;100.00;97591.59;4913512;29;20043;-82
2021/12/05 02:47:51;;;;;;;1.13;1.00;;;;;;;2.47;100.00;97584.25;4921239;29;20566;-82
2021/12/05 02:50:19;;;;;;;1.38;0.93;;;;;;;2.51;100.00;97596.66;4927813;29;20032;-82
2021/12/05 02:52:45;;;;;;;1.58;0.98;;;;;;;2.52;100.00;97608.63;4924188;29;20130;-82
2021/12/05 02:55:30;;;;;;;1.50;1.40;;;;;;;2.53;100.00;97609.41;4891147;29;20036;-83
2021/12/05 02:58:01;;;;;;;1.95;1.30;;;;;;;2.48;100.00;97637.66;4915649;29;20044;-83
2021/12/05 03:00:40;;;;;;;3.60;1.38;;;;;;;2.55;100.00;97628.19;4912572;29;20114;-82
2021/12/05 03:03:18;;;;;;;1.42;0.90;;;;;;;2.28;100.00;97607.09;4931210;29;20042;-81
2021/12/05 03:05:46;;;;;;;4.25;1.20;;;;;;;2.55;100.00;97643.72;4915049;29;20032;-83
2021/12/05 03:08:12;;;;;;;1.63;1.20;;;;;;;2.52;100.00;97659.63;4906813;29;20071;-81
2021/12/05 03:10:39;;;;;;;1.67;1.10;;;;;;;2.58;100.00;97643.41;4950187;29;20032;-81
2021/12/05 03:13:05;;;;;;;1.20;1.10;;;;;;;2.56;100.00;97633.19;4920572;29;20054;-81
2021/12/05 03:15:31;;;;;;;2.13;1.00;;;;;;;2.51;100.00;97639.88;4908395;29;20020;-81
2021/12/05 03:17:57;;;;;;;5.55;2.28;;;;;;;2.62;100.00;97649.00;4912384;29;20039;-83
2021/12/05 03:20:23;;;;;;;1.45;1.00;;;;;;;2.60;100.00;97659.56;4931752;29;20024;-83
2021/12/05 03:22:51;;;;;;;3.55;1.85;;;;;;;2.50;100.00;97636.50;4945487;29;20096;-82
2021/12/05 03:25:17;;;;;;;2.67;1.10;;;;;;;2.52;100.00;97638.91;4928447;29;20072;-81
2021/12/05 03:27:43;;;;;;;1.63;1.10;;;;;;;2.62;100.00;97665.38;4944302;29;20036;-84
2021/12/05 03:30:14;;;;;;;3.17;1.10;;;;;;;2.67;100.00;97688.94;4945352;29;20058;-83
2021/12/05 03:32:41;;;;;;;1.40;0.90;;;;;;;2.65;100.00;97639.09;4944369;29;20027;-83
2021/12/05 03:35:09;;;;;;;1.10;0.90;;;;;;;2.69;100.00;97640.34;4945790;29;20036;-83
2021/12/05 03:37:36;;;;;;;1.52;1.25;;;;;;;2.74;100.00;97672.69;4947142;29;20358;-83
2021/12/05 03:40:04;;;;;;;1.42;0.75;;;;;;;2.73;100.00;97669.31;4906493;29;20390;-83
2021/12/05 03:42:30;;;;;;;0.95;0.63;;;;;;;2.76;100.00;97675.94;4939899;29;20388;-82
2021/12/05 03:44:56;;;;;;;2.72;1.13;;;;;;;2.64;100.00;97684.13;4939847;29;20056;-83
2021/12/05 03:47:22;;;;;;;1.42;0.68;;;;;;;2.69;100.00;97681.81;4904471;29;20023;-84
2021/12/05 03:49:48;;;;;;;2.13;0.70;;;;;;;2.75;100.00;97687.25;4902568;29;20086;-84
2021/12/05 03:52:16;;;;;;;0.80;0.80;;;;;;;2.69;100.00;97701.75;4924711;29;20044;-83
2021/12/05 03:54:43;;;;;;;1.33;0.70;;;;;;;2.87;100.00;97698.00;4890974;29;20040;-83
2021/12/05 03:57:09;;;;;;;1.25;0.90;;;;;;;2.78;100.00;97694.69;4891378;29;20036;-83
2021/12/05 03:59:36;;;;;;;1.00;0.63;;;;;;;2.86;100.00;97707.56;4914587;29;20047;-83
2021/12/05 04:02:04;;;;;;;1.10;0.80;;;;;;;2.84;100.00;97706.94;4908752;29;20045;-83
2021/12/05 04:04:30;;;;;;;3.45;0.90;;;;;;;2.89;100.00;97711.59;4912046;29;20150;-84
2021/12/05 04:06:56;;;;;;;1.17;0.77;;;;;;;2.90;100.00;97715.78;4906223;29;20053;-82
2021/12/05 04:09:22;;;;;;;1.88;1.13;;;;;;;2.79;100.00;97735.16;4911598;29;20036;-82
2021/12/05 04:12:02;;;;;;;3.05;0.90;;;;;;;2.85;100.00;97718.91;4913163;29;20087;-83
2021/12/05 04:14:42;;;;;;;1.90;1.10;;;;;;;2.85;100.00;97737.88;4905378;29;20047;-82
2021/12/05 04:17:09;;;;;;;2.70;0.90;;;;;;;2.87;100.00;97752.44;4903945;29;20068;-82
2021/12/05 04:19:36;;;;;;;1.00;0.90;;;;;;;2.89;100.00;97727.94;4924750;29;20424;-81
2021/12/05 04:22:05;;;;;;;2.67;1.10;;;;;;;2.90;100.00;97741.72;4901977;29;20485;-82
2021/12/05 04:24:32;;;;;;;2.38;0.90;;;;;;;2.95;100.00;97732.44;4911911;29;20028;-82
2021/12/05 04:27:04;;;;;;;3.00;1.15;;;;;;;2.83;100.00;97739.00;4908955;29;20028;-81
2021/12/05 04:29:31;;;;;;;3.75;1.15;;;;;;;2.77;100.00;97755.28;4934158;29;20055;-83
2021/12/05 04:31:58;;;;;;;2.35;1.05;;;;;;;2.74;100.00;97751.25;4914573;29;20481;-82
2021/12/05 04:34:24;;;;;;;3.20;1.27;;;;;;;2.80;100.00;97741.97;4896513;29;20060;-82
2021/12/05 04:36:55;;;;;;;2.40;1.02;;;;;;;2.80;100.00;97744.56;4899596;29;20039;-82
2021/12/05 04:39:22;;;;;;;0.93;0.80;;;;;;;2.77;100.00;97757.88;4896588;29;20044;-82
2021/12/05 04:41:49;;;;;;;2.42;1.10;;;;;;;2.71;100.00;97757.56;4929148;29;20034;-82
2021/12/05 04:44:15;;;;;;;1.63;0.90;;;;;;;2.85;100.00;97770.75;4899143;29;20040;-82
2021/12/05 04:46:41;;;;;;;2.30;1.23;;;;;;;2.97;100.00;97777.13;4933494;29;20040;-83
2021/12/05 04:49:07;;;;;;;4.07;1.20;;;;;;;2.83;100.00;97775.28;4912716;29;20036;-83
2021/12/05 04:51:39;;;;;;;1.75;1.20;;;;;;;2.93;100.00;97786.19;4920738;29;20042;-83
2021/12/05 04:54:07;;;;;;;1.70;1.02;;;;;;;2.97;100.00;97808.22;4914492;29;20059;-82
2021/12/05 04:56:35;;;;;;;5.38;1.27;;;;;;;2.88;100.00;97816.25;4927384;29;20032;-82
2021/12/05 04:59:04;;;;;;;2.00;1.00;;;;;;;3.02;100.00;97823.22;4917992;29;20028;-82
2021/12/05 05:01:30;;;;;;;2.88;1.50;;;;;;;2.96;100.00;97801.44;4912086;29;20083;-81
2021/12/05 05:03:58;;;;;;;2.30;1.20;;;;;;;2.82;100.00;97795.22;4930361;29;20032;-81
2021/12/05 05:06:24;;;;;;;2.00;1.20;;;;;;;2.99;100.00;97806.25;4901755;29;20398;-82
2021/12/05 05:08:53;;;;;;;2.50;0.88;;;;;;;3.04;100.00;97803.13;4909836;29;20096;-82
2021/12/05 05:11:21;;;;;;;2.33;1.30;;;;;;;2.99;100.00;97805.44;4906673;29;20039;-82
2021/12/05 05:13:47;;;;;;;2.28;1.23;;;;;;;2.99;100.00;97814.03;4907681;29;20430;-82
2021/12/05 05:16:15;;;;;;;2.72;1.20;;;;;;;3.11;100.00;97824.78;4909386;29;20032;-82
2021/12/05 05:18:59;;;;;;;3.33;1.35;;;;;;;3.06;100.00;97819.31;4926584;29;20064;-82
2021/12/05 05:21:44;;;;;;;2.15;1.25;;;;;;;2.93;100.00;97838.03;4892690;29;20032;-81
2021/12/05 05:27:27;;;;;;;1.42;1.02;;;;;;;3.02;100.00;97843.19;4919496;29;20038;-81
2021/12/05 05:30:41;;;;;;;1.67;1.02;;;;;;;3.00;100.00;97854.53;4909957;29;20043;-82
2021/12/05 05:50:51;;;;;;;3.83;1.67;;;;;;;2.88;100.00;97870.66;4910714;29;20550;-83
2021/12/05 05:53:17;;;;;;;6.35;2.22;;;;;;;2.85;100.00;97866.63;4927697;29;20036;-82
2021/12/05 05:55:42;;;;;;;5.22;1.60;;;;;;;2.95;100.00;97893.13;4925908;29;20115;-82
2021/12/05 05:58:12;;;;;;;2.78;1.33;;;;;;;2.94;100.00;97894.09;4912649;29;20060;-82
2021/12/05 06:00:52;;;;;;;3.53;1.48;;;;;;;2.90;100.00;97900.59;4906944;29;20040;-82
2021/12/05 06:03:21;;;;;;;8.32;2.47;;;;;;;3.01;100.00;97886.44;4893450;29;20486;-83
2021/12/05 06:06:05;;;;;;;5.75;1.40;;;;;;;2.99;100.00;97906.53;4907718;29;20023;-83
2021/12/05 06:08:33;;;;;;;4.57;1.63;;;;;;;3.06;100.00;97909.25;4902850;29;20079;-83
2021/12/05 06:11:03;;;;;;;5.88;2.05;;;;;;;3.07;100.00;97905.66;4895960;29;20051;-82
2021/12/05 06:13:31;;;;;;;9.07;1.80;;;;;;;3.07;100.00;97910.84;4908305;29;20039;-83
2021/12/05 06:15:57;;;;;;;9.82;1.88;;;;;;;3.09;100.00;97908.88;4926045;29;20095;-82
2021/12/05 06:18:23;;;;;;;1.92;1.13;;;;;;;3.15;100.00;97926.38;4932163;29;20039;-83
2021/12/05 06:20:50;;;;;;;8.70;2.42;;;;;;;3.15;100.00;97905.63;4897644;29;20036;-84
2021/12/05 06:23:16;;;;;;;8.18;1.80;;;;;;;3.14;100.00;97932.50;4904148;29;20067;-83
2021/12/05 06:25:45;;;;;;;5.35;1.60;;;;;;;3.14;100.00;97922.13;4897102;29;20158;-83
2021/12/05 06:28:14;;;;;;;4.70;1.65;;;;;;;3.13;100.00;97920.53;4907202;29;20042;-84
2021/12/05 06:31:01;;;;;;;8.05;1.90;;;;;;;3.03;100.00;97914.78;4916121;29;20139;-84
2021/12/05 06:41:54;;;;;;;7.82;2.10;;;;;;;3.13;100.00;97951.63;4915459;29;20051;-83
2021/12/05 06:47:05;;;;;;;5.55;1.80;;;;;;;3.14;100.00;97941.09;4898651;29;20068;-83
2021/12/05 06:49:31;;;;;;;7.45;1.77;;;;;;;3.08;100.00;97951.34;4899182;29;20483;-83
2021/12/05 06:51:56;;;;;;;8.18;2.05;;;;;;;3.09;100.00;97942.59;4899554;29;20032;-83
2021/12/05 06:54:24;;;;;;;11.32;1.73;;;;;;;2.98;100.00;97947.22;4915464;29;20087;-82
2021/12/05 06:56:50;;;;;;;7.85;1.83;;;;;;;3.06;100.00;97959.31;4916447;29;20036;-84
2021/12/05 06:59:17;;;;;;;5.18;1.90;;;;;;;3.02;100.00;97963.22;4899066;29;20032;-83
2021/12/05 07:01:42;;;;;;;6.85;1.75;;;;;;;3.00;100.00;97972.97;4913735;29;20064;-83
2021/12/05 07:04:20;;;;;;;8.30;2.05;;;;;;;3.05;100.00;97982.81;4916297;29;20099;-82
2021/12/05 07:06:46;;;;;;;4.68;2.10;;;;;;;3.12;100.00;97960.41;4914977;29;20391;-83
2021/12/05 07:09:11;;;;;;;6.85;2.22;;;;;;;3.13;100.00;97983.56;4898797;29;20077;-82
2021/12/05 07:17:08;;;;;;;5.18;1.60;;;;;;;3.19;100.00;97971.72;4899173;29;20043;-83
2021/12/05 07:20:39;;;;;;;7.43;1.70;;;;;;;3.21;100.00;97990.50;4883520;29;20036;-84
2021/12/05 07:22:36;;;;;;;2.58;1.33;;;;;;;3.21;100.00;97997.44;4908855;29;20111;-83
2021/12/05 07:25:12;;;;;;;7.90;1.80;;;;;;;3.10;100.00;97993.47;4899367;29;20035;-83
2021/12/05 07:41:34;;;;;;;5.93;1.75;;;;;;;3.32;100.00;98068.88;4910446;29;20114;-80
2021/12/05 07:43:59;;;;;;;3.85;1.20;;;;;;;3.39;100.00;98043.88;4922606;29;20035;-80
2021/12/05 07:46:25;;;;;;;3.08;1.33;;;;;;;3.44;100.00;98041.56;4890185;29;20521;-81
2021/12/05 07:48:51;;;;;;;6.18;1.73;;;;;;;3.41;100.00;98058.28;4910532;29;20437;-80
2021/12/05 07:56:40;;;;;;;4.22;1.42;;;;;;;3.26;100.00;98076.38;4927906;29;20553;-81
2021/12/05 08:15:45;;;;;;;3.90;1.13;;;;;;;3.11;100.00;98088.44;4927086;29;20043;-84
2021/12/05 08:18:10;;;;;;;;;;;;;;;3.15;100.00;98094.91;4924330;29;20079;-82
2021/12/05 08:20:39;;;;;;;4.40;1.50;;;;;;;3.09;100.00;98132.69;4905383;29;19923;-84
2021/12/05 08:23:06;;;;;;;7.93;1.58;;;;;;;3.11;100.00;98115.19;4911205;29;20461;-84
2021/12/05 08:25:36;;;;;;;3.65;0.90;;;;;;;3.15;100.00;98110.47;4924526;29;20031;-83
2021/12/05 08:28:37;;;;;;;3.40;1.20;;;;;;;3.12;100.00;98103.00;4923642;29;20028;-82
2021/12/05 08:31:09;;;;;;;7.95;1.67;;;;;;;3.22;100.00;98171.06;4908306;29;20102;-82
2021/12/05 08:34:29;;;;;;;1.90;1.05;;;;;;;3.24;100.00;98119.81;4907217;29;20043;-80
2021/12/05 10:37:12;;;;;;;10.32;2.25;;;;;;;3.64;100.00;98362.91;4923085;29;20112;-80
2021/12/05 10:39:39;;;;;;;4.53;2.10;;;;;;;3.51;100.00;98345.25;4894857;29;20479;-79
2021/12/05 10:42:44;;;;;;;7.72;1.88;;;;;;;3.82;100.00;98386.88;4906085;29;20051;-80
2021/12/05 10:45:21;;;;;;;7.40;2.33;;;;;;;3.82;100.00;98376.47;4858898;29;20045;-80
2021/12/05 10:47:50;;;;;;;5.38;1.88;;;;;;;3.78;100.00;98383.00;4901167;29;20190;-80
2021/12/05 10:50:35;;;;;;;5.32;1.90;;;;;;;3.83;100.00;98385.88;4927676;29;20118;-79
2021/12/05 10:53:43;;;;;;;10.70;1.95;;;;;;;3.91;100.00;98402.41;4909182;29;20078;-79
2021/12/05 10:56:28;;;;;;;7.25;2.70;;;;;;;3.91;100.00;98403.22;4910857;29;20074;-80
2021/12/05 10:58:58;;;;;;;10.90;2.00;;;;;;;3.88;100.00;98394.97;4905047;29;20046;-81
2021/12/05 11:01:27;;;;;;;6.50;1.98;;;;;;;3.97;100.00;98406.94;4908173;29;20024;-80
2021/12/05 11:04:22;;;;;;;4.88;1.90;;;;;;;3.98;100.00;98400.78;4922881;29;20164;-81
2021/12/05 11:06:55;;;;;;;5.70;1.83;;;;;;;4.05;100.00;98396.53;4905275;29;20401;-80
2021/12/05 11:09:21;;;;;;;;;;;;;;;4.12;100.00;98402.66;4911511;29;20493;-81
2021/12/05 11:12:08;;;;;;;2.83;1.80;;;;;;;4.04;100.00;98420.88;4925710;29;19922;-81
2021/12/05 11:14:38;;;;;;;8.55;1.80;;;;;;;4.22;100.00;98412.84;4924864;29;20039;-80
2021/12/05 11:17:05;;;;;;;6.82;2.05;;;;;;;4.28;100.00;98417.38;4905751;29;20438;-81
2021/12/05 11:19:39;;;;;;;3.35;1.70;;;;;;;4.31;100.00;98403.22;4908164;29;20399;-81
2021/12/05 11:22:22;;;;;;;6.25;1.75;;;;;;;4.37;100.00;98430.31;4928394;29;20040;-79
2021/12/05 11:24:52;;;;;;;5.20;1.77;;;;;;;4.44;100.00;98420.88;4893190;29;20039;-80
2021/12/05 11:27:36;;;;;;;5.57;1.77;;;;;;;4.26;100.00;98439.31;4905932;29;20062;-80
2021/12/05 11:30:13;;;;;;;4.68;1.98;;;;;;;4.29;100.00;98444.16;4910732;29;20048;-79
2021/12/05 11:32:43;;;;;;;4.63;1.80;;;;;;;4.18;100.00;98431.56;4921529;29;20051;-80
2021/12/05 11:35:39;;;;;;;8.27;2.08;;;;;;;4.35;100.00;98447.88;4889045;29;20501;-81
2021/12/05 11:38:05;;;;;;;7.15;2.60;;;;;;;4.33;100.00;98444.63;4909511;29;20067;-80
2021/12/05 11:40:50;;;;;;;4.90;2.17;;;;;;;4.42;100.00;98438.41;4924933;29;20111;-80
2021/12/05 11:43:26;;;;;;;3.58;1.58;;;;;;;4.31;100.00;98469.97;4908583;29;20057;-80
2021/12/05 11:46:06;;;;;;;7.75;1.90;;;;;;;4.26;100.00;98454.88;4927655;29;20031;-80
2021/12/05 11:48:47;;;;;;;6.35;2.55;;;;;;;4.37;100.00;98461.50;4900043;29;20111;-81
2021/12/05 11:51:29;;;;;;;9.52;2.20;;;;;;;4.37;100.00;98462.34;4924352;29;20031;-80
2021/12/05 11:54:09;;;;;;;4.47;1.98;;;;;;;4.28;100.00;98453.75;4924398;29;20475;-81
2021/12/05 11:56:34;;;;;;;7.63;2.08;;;;;;;4.42;100.00;98465.22;4899768;29;20032;-81
2021/12/05 11:59:22;;;;;;;6.40;2.17;;;;;;;4.48;100.00;98478.50;4890074;29;20051;-80
2021/12/05 12:01:59;;;;;;;7.60;2.35;;;;;;;4.46;100.00;98464.88;4922898;29;20036;-79
2021/12/05 12:04:38;;;;;;;6.72;2.80;;;;;;;4.47;100.00;98464.72;4910785;29;20043;-80
2021/12/05 12:07:41;;;;;;;10.38;3.15;;;;;;;4.55;100.00;98480.28;4921016;29;20062;-79
2021/12/05 12:10:14;;;;;;;5.05;2.38;;;;;;;4.34;100.00;98483.47;4906718;29;20039;-80
2021/12/05 12:12:44;;;;;;;8.95;2.60;;;;;;;4.45;100.00;98490.06;4924966;29;20036;-80
2021/12/05 12:15:11;;;;;;;8.40;2.55;;;;;;;4.64;100.00;98494.03;4909927;29;20028;-80
2021/12/05 12:17:37;;;;;;;6.50;2.60;;;;;;;4.54;100.00;98477.88;4908121;29;20397;-80
2021/12/05 12:20:19;;;;;;;6.25;2.67;;;;;;;4.69;100.00;98501.34;4908007;29;20111;-80
2021/12/05 12:22:45;;;;;;;7.45;2.72;;;;;;;4.84;100.00;98478.03;4925777;29;20040;-80
2021/12/05 12:25:19;;;;;;;7.55;2.97;;;;;;;4.97;100.00;98499.09;4892843;29;20059;-80
2021/12/05 12:27:50;;;;;;;5.43;3.28;;;;;;;5.02;100.00;98505.56;4895308;29;20558;-81
2021/12/05 12:30:24;;;;;;;7.88;3.15;;;;;;;4.85;100.00;98495.25;4920719;29;20059;-80
2021/12/05 12:32:55;;;;;;;9.70;3.58;;;;;;;4.76;100.00;98498.88;4908549;29;20088;-80
2021/12/05 12:35:26;;;;;;;6.47;3.25;;;;;;;4.87;100.00;98508.88;4874421;29;20403;-79
2021/12/05 12:38:07;;;;;;;11.00;4.20;;;;;;;4.82;100.00;98506.00;4905327;29;20029;-78
2021/12/05 12:40:42;;;;;;;5.88;3.53;;;;;;;4.75;100.00;98505.84;4905887;29;20025;-77
2021/12/05 12:43:44;;;;;;;17.13;4.03;;;;;;;4.75;100.00;98521.47;4905363;29;20036;-77
2021/12/05 12:46:20;;;;;;;12.73;3.90;;;;;;;4.85;100.00;98523.84;4888542;29;20028;-78
2021/12/05 12:48:49;;;;;;;11.15;3.75;;;;;;;5.03;100.00;98526.22;4877031;29;20126;-78
2021/12/05 12:51:36;;;;;;;8.07;3.50;;;;;;;4.94;100.00;98530.66;4891303;29;20421;-77
2021/12/05 12:54:14;;;;;;;9.40;3.83;;;;;;;4.90;100.00;98518.94;4894356;29;20024;-79
2021/12/05 12:56:42;;;;;;;8.98;3.30;;;;;;;5.02;100.00;98536.78;4895650;29;20040;-80
2021/12/05 12:59:17;;;;;;;7.97;3.38;;;;;;;5.01;100.00;98538.56;4907643;29;20080;-78
2021/12/05 13:10:10;;;;;;;10.00;4.30;;;;;;;4.96;100.00;98559.91;4884649;29;20049;-79
2021/12/05 13:12:50;;;;;;;10.07;4.00;;;;;;;5.01;100.00;98567.16;4877334;29;20032;-79
2021/12/05 13:15:41;;;;;;;7.65;4.53;;;;;;;5.05;100.00;98559.84;4893699;29;20091;-80
2021/12/05 13:18:10;;;;;;;9.32;4.68;;;;;;;5.16;100.00;98575.09;4906656;29;20037;-79
2021/12/05 13:20:52;;;;;;;14.32;4.38;;;;;;;5.24;100.00;98576.84;4890712;29;20113;-80
2021/12/05 13:23:30;;;;;;;12.98;4.40;;;;;;;5.37;100.00;98592.69;4895052;29;20036;-80
2021/12/05 13:26:11;;;;;;;13.40;4.70;;;;;;;5.23;100.00;98591.63;4894919;29;20540;-80
2021/12/05 13:28:45;;;;;;;13.07;5.43;;;;;;;5.28;100.00;98607.53;4889588;29;20040;-80
2021/12/05 13:31:26;;;;;;;13.07;6.28;;;;;;;5.48;100.00;98620.09;4922533;29;20470;-78
2021/12/05 13:34:14;;;;;;;14.50;5.97;;;;;;;5.49;100.00;98607.91;4892648;29;20491;-77
2021/12/05 13:36:42;;;;;;;9.27;4.90;;;;;;;5.54;100.00;98603.81;4926489;29;20043;-77
2021/12/05 13:39:47;;;;;;;13.05;4.15;;;;;;;5.71;100.00;98601.91;4927491;29;20490;-79
2021/12/05 13:42:37;;;;;;;11.95;4.60;;;;;;;5.60;100.00;98609.31;4894966;29;20051;-81
2021/12/05 13:45:25;;;;;;;9.73;4.85;;;;;;;5.68;100.00;98624.88;4931126;29;20401;-78
2021/12/05 13:47:51;;;;;;;8.50;4.20;;;;;;;5.64;100.00;98634.00;4893460;29;20056;-79
2021/12/05 13:50:17;;;;;;;11.93;4.40;;;;;;;5.69;100.00;98635.13;4931179;29;20131;-81
2021/12/05 13:52:45;;;;;;;10.88;4.70;;;;;;;5.61;100.00;98629.16;4909430;29;20035;-79
2021/12/05 13:55:42;;;;;;;11.52;4.32;;;;;;;5.46;100.00;98642.91;4891931;29;20032;-80
2021/12/05 13:58:19;;;;;;;12.13;4.80;;;;;;;5.39;100.00;98655.78;4912822;29;20118;-80
2021/12/05 14:01:25;;;;;;;14.85;5.75;;;;;;;5.29;100.00;98658.59;4903684;29;20062;-79
2021/12/05 14:04:04;;;;;;;9.35;5.38;;;;;;;5.31;100.00;98660.25;4900279;29;20100;-79
2021/12/05 14:06:49;;;;;;;13.77;5.28;;;;;;;5.15;100.00;98672.31;4928776;29;20102;-79
2021/12/05 14:09:35;;;;;;;10.93;5.20;;;;;;;5.35;100.00;98677.13;4922050;29;20506;-82
2021/12/05 14:12:01;;;;;;;10.38;4.97;;;;;;;5.22;100.00;98682.88;4928896;29;20039;-81
2021/12/05 14:14:38;;;;;;;9.60;4.82;;;;;;;5.29;100.00;98682.00;4907257;29;20388;-81
2021/12/05 14:17:11;;;;;;;7.72;4.75;;;;;;;5.14;100.00;98681.13;4904334;29;20043;-80
2021/12/05 14:19:39;;;;;;;12.90;4.50;;;;;;;5.07;100.00;98680.16;4923679;29;20031;-80
2021/12/05 14:22:09;;;;;;;8.18;4.53;;;;;;;5.22;100.00;98683.69;4891245;29;20275;-79
2021/12/05 14:24:49;;;;;;;10.18;4.07;;;;;;;5.14;100.00;98696.72;4924694;29;20080;-80
2021/12/05 14:27:28;;;;;;;9.48;3.75;;;;;;;5.23;100.00;98698.31;4926122;29;20048;-79
2021/12/05 14:29:54;;;;;;;14.65;5.13;;;;;;;5.18;100.00;98692.81;4924255;29;20474;-80
2021/12/05 14:32:40;;;;;;;10.10;3.92;;;;;;;5.16;100.00;98712.97;4922331;29;20035;-78
2021/12/05 14:35:12;;;;;;;7.43;3.70;;;;;;;5.18;100.00;98708.41;4925829;29;20068;-78
2021/12/05 14:37:40;;;;;;;13.38;4.05;;;;;;;5.23;100.00;98711.31;4924557;29;20035;-81
2021/12/05 14:40:15;;;;;;;7.72;4.20;;;;;;;5.20;100.00;98714.25;4926855;29;20047;-79
2021/12/05 14:42:45;;;;;;;11.32;4.82;;;;;;;5.15;100.00;98724.38;4924083;29;20431;-79
2021/12/05 14:45:24;;;;;;;12.25;4.03;;;;;;;5.10;100.00;98729.22;4925861;29;20063;-80
2021/12/05 14:47:52;;;;;;;11.98;4.20;;;;;;;5.24;100.00;98720.75;4927755;29;20024;-80
2021/12/05 14:50:25;;;;;;;9.05;4.15;;;;;;;5.08;100.00;98718.19;4929009;29;20060;-79
2021/12/05 14:52:57;;;;;;;10.43;4.50;;;;;;;5.18;100.00;98718.00;4926254;29;20529;-80
2021/12/05 14:55:25;;;;;;;12.65;4.75;;;;;;;5.28;100.00;98719.44;4925922;29;20393;-79
2021/12/05 14:57:53;;;;;;;9.38;4.28;;;;;;;5.20;100.00;98710.84;4925046;29;20442;-79
2021/12/05 15:00:33;;;;;;;7.75;4.22;;;;;;;5.13;100.00;98732.31;4907433;29;20469;-79
2021/12/05 15:03:07;;;;;;;7.15;3.90;;;;;;;5.04;100.00;98733.34;4910150;29;20032;-79
2021/12/05 15:05:35;;;;;;;8.00;3.60;;;;;;;5.02;100.00;98730.09;4928678;29;20384;-79
2021/12/05 15:08:10;;;;;;;7.68;3.95;;;;;;;4.88;100.00;98728.97;4927450;29;20114;-78
2021/12/05 15:10:37;;;;;;;10.82;3.80;;;;;;;4.91;100.00;98740.84;4928079;29;20478;-79
2021/12/05 15:13:04;;;;;;;9.63;4.07;;;;;;;5.02;100.00;98727.50;4925542;29;20418;-78
2021/12/05 15:15:30;;;;;;;6.90;3.75;;;;;;;4.89;100.00;98724.59;4918061;29;20075;-78
2021/12/05 15:17:57;;;;;;;10.90;4.05;;;;;;;4.87;100.00;98722.13;4895900;29;20093;-79
2021/12/05 15:20:30;;;;;;;10.52;3.53;;;;;;;4.90;100.00;98737.41;4890482;29;20036;-80
2021/12/05 15:23:05;;;;;;;8.25;4.07;;;;;;;4.79;100.00;98741.16;4923879;29;20044;-78
2021/12/05 15:25:33;;;;;;;8.88;3.90;;;;;;;4.75;100.00;98739.06;4922800;29;20032;-79
2021/12/05 15:28:00;;;;;;;7.80;3.70;;;;;;;4.60;100.00;98741.50;4921664;29;20051;-80
2021/12/05 15:30:30;;;;;;;6.05;3.95;;;;;;;4.55;100.00;98742.81;4920966;29;20490;-82
2021/12/05 15:33:00;;;;;;;9.55;4.10;;;;;;;4.48;100.00;98739.25;4921603;29;20060;-79
2021/12/05 15:35:26;;;;;;;9.02;4.47;;;;;;;4.62;100.00;98758.56;4906756;29;20504;-80
2021/12/05 15:38:08;;;;;;;5.25;4.00;;;;;;;4.66;100.00;98767.66;4925343;29;20082;-81
2021/12/05 15:40:37;;;;;;;5.43;3.95;;;;;;;4.74;100.00;98763.44;4909009;29;20072;-80
2021/12/05 15:43:06;;;;;;;7.32;3.92;;;;;;;4.78;100.00;98767.34;4923640;29;20033;-80
2021/12/05 15:45:33;;;;;;;9.95;4.40;;;;;;;4.69;100.00;98772.53;4887615;29;20032;-79
2021/12/05 15:47:59;;;;;;;10.27;4.22;;;;;;;4.81;100.00;98774.81;4918618;29;20039;-79
2021/12/05 15:50:31;;;;;;;11.32;4.35;;;;;;;4.79;100.00;98781.97;4926249;29;20032;-79
2021/12/05 15:53:12;;;;;;;8.20;4.20;;;;;;;4.86;100.00;98782.94;4919449;29;20064;-81
2021/12/05 15:55:51;;;;;;;14.23;5.60;;;;;;;4.83;100.00;98794.50;4923953;29;20023;-81
2021/12/05 15:58:24;;;;;;;13.32;4.85;;;;;;;4.68;100.00;98786.50;4921153;29;20062;-80
2021/12/05 16:01:05;;;;;;;14.50;5.70;;;;;;;4.71;100.00;98806.97;4923982;29;20028;-80
2021/12/05 16:03:44;;;;;;;11.00;5.50;;;;;;;4.84;100.00;98810.88;4918208;29;20036;-80
2021/12/05 16:06:13;;;;;;;11.23;5.60;;;;;;;4.85;100.00;98802.09;4919723;29;20032;-80
2021/12/05 16:08:40;;;;;;;12.80;5.35;;;;;;;4.80;100.00;98807.00;4923528;29;20054;-81
2021/12/05 16:11:11;;;;;;;15.35;5.97;;;;;;;4.71;100.00;98817.38;4886475;29;20095;-82
2021/12/05 16:13:41;;;;;;;10.48;6.10;;;;;;;4.65;100.00;98823.22;4922573;29;20035;-81
2021/12/05 16:16:17;;;;;;;14.98;6.22;;;;;;;4.64;100.00;98832.00;4919077;29;20144;-82
2021/12/05 16:18:46;;;;;;;12.25;5.47;;;;;;;4.49;100.00;98829.22;4903158;29;20058;-81
2021/12/05 16:21:20;;;;;;;9.57;5.82;;;;;;;4.48;100.00;98837.19;4917500;29;20028;-82
2021/12/05 16:23:48;;;;;;;16.35;6.32;;;;;;;4.38;100.00;98848.53;4923647;29;20055;-83
2021/12/05 16:26:19;;;;;;;18.60;7.28;;;;;;;4.40;100.00;98843.16;4908676;29;20024;-84
2021/12/05 16:28:49;;;;;;;16.50;7.10;;;;;;;4.30;100.00;98832.91;4907488;29;20092;-83
2021/12/05 16:31:31;;;;;;;12.48;7.30;;;;;;;4.37;100.00;98844.31;4923501;29;20068;-82
2021/12/05 16:34:05;;;;;;;14.43;8.57;;;;;;;4.36;100.00;98857.47;4922967;29;20115;-83
2021/12/05 16:36:39;;;;;;;21.35;11.27;;;;;;;4.41;100.00;98861.22;4891529;29;20040;-86
2021/12/05 16:39:42;;;;;;;21.58;11.10;;;;;;;4.30;100.00;98866.69;4931118;29;20034;-82
2021/12/05 16:42:12;;;;;;;20.35;11.50;;;;;;;4.30;100.00;98864.09;4919035;29;20486;-82
2021/12/05 16:44:40;;;;;;;18.92;9.38;;;;;;;4.39;100.00;98876.16;4914935;29;20115;-83
2021/12/05 16:47:28;;;;;;;18.95;7.97;;;;;;;4.39;100.00;98885.72;4913964;29;20036;-81
2021/12/05 16:49:56;;;;;;;13.75;7.78;;;;;;;4.36;100.00;98892.06;4914531;29;20490;-81
2021/12/05 16:52:23;;;;;;;15.00;8.40;;;;;;;4.45;100.00;98899.88;4935584;29;20027;-83
2021/12/05 16:54:53;;;;;;;12.70;8.00;;;;;;;4.33;100.00;98897.59;4902743;29;20056;-85
2021/12/05 16:57:23;;;;;;;17.13;7.78;;;;;;;4.39;100.00;98907.34;4902763;29;20491;-84
2021/12/05 16:59:54;;;;;;;16.55;8.50;;;;;;;4.43;100.00;98910.44;4902447;29;20143;-84
2021/12/05 17:02:34;;;;;;;15.23;8.63;;;;;;;4.34;100.00;98899.22;4897085;29;20123;-83
2021/12/05 17:05:16;;;;;;;15.15;7.55;;;;;;;4.32;100.00;98921.13;4907149;29;20038;-82
2021/12/05 17:07:55;;;;;;;15.68;8.25;;;;;;;4.41;100.00;98923.59;4927760;29;20040;-83
2021/12/05 17:10:20;;;;;;;15.65;8.68;;;;;;;4.50;100.00;98928.81;4906075;29;20044;-83
2021/12/05 17:12:51;;;;;;;18.20;8.48;;;;;;;4.41;100.00;98928.78;4908751;29;20064;-85
2021/12/05 17:15:21;;;;;;;14.07;7.60;;;;;;;4.26;100.00;98902.59;4924441;29;20032;-83
2021/12/05 17:17:53;;;;;;;18.17;8.25;;;;;;;4.39;100.00;98917.75;4918821;29;20050;-83
2021/12/05 17:20:43;;;;;;;16.10;8.43;;;;;;;4.39;100.00;98933.34;4897359;29;20501;-82
2021/12/05 17:23:19;;;;;;;14.75;7.97;;;;;;;4.29;100.00;98925.66;4916064;29;20028;-83